Hlavní strana
METAR-TAF:

METAR-TAF

Letiště :

Poteau, Oklahoma, Spojené státy americké

zeměpisná šířka: 35-01-18N, zeměpisná délka: 094-37-17W, výška: 138 m

Aktuální stav počasí

Zpráva byla vytvořena před 29 minutami, v 11:35 UTC
Západní vítr 5 kt s nárazy do 14 kt
Teplota 3°C
Vlhkost vzduchu 81%
Tlak 1017 hPa
Viditelnost: 16.1 km
Zataženo ve výšce 1900 ft

METAR: KRKR 241135Z AUTO 28005G14KT 10SM OVC019 03/00 A3002 RMK AO2

Čas: 06:04 (12:04 UTC)


TAF: chybějící

Stav a předpovědi počasí z více než 4 000 letišť (zprávy METAR a TAF).

Červené a žluté tečky na mapě představují dostupné meteorologické stanice.

Když kurzor umístíte na tečku, zobrazí se název stanice.

Pak kliknutím zobrazíte stav a předpověď počasí.

Chcete-li změnit mapu, kliknutím na zelené tlačítko se znaménkem +mapu přiblížíte, kliknutím na zelené tlačítko se znaménkem – mapu oddálíte a kliknutím na zelené šipky přejdete na sousední mapy.


METAR-TAF: